Terminal Aerodrome Forecast
Issued by NWS

Home | Current Version | Previous Version | Graphics & Text | Print | Product List | Glossary On
Versions: 1 2 3 4 5 6 7 8 9 10 11 12
751
FTUS43 KICT 300521
TAFRSL
TAF
KRSL 300521Z 3006/0106 28010KT P6SM BKN060
     FM301000 30012KT P6SM SCT090
     FM301800 30022G29KT P6SM FEW200
     FM302300 30012KT P6SM FEW200=

USA.gov is the U.S. government's official web portal to all federal, state and local government web resources and services.